sensor_id;sensor_type;location;lat;lon;timestamp;temperature;humidity
25300;DHT22;13241;51.208;4.432;2022-12-18T00:01:33;-3.00;99.90
25300;DHT22;13241;51.208;4.432;2022-12-18T00:04:05;-3.10;99.90
25300;DHT22;13241;51.208;4.432;2022-12-18T00:06:33;-3.10;99.90
25300;DHT22;13241;51.208;4.432;2022-12-18T00:09:00;-3.20;99.90
25300;DHT22;13241;51.208;4.432;2022-12-18T00:11:29;-3.20;99.90
25300;DHT22;13241;51.208;4.432;2022-12-18T00:13:57;-3.20;99.90
25300;DHT22;13241;51.208;4.432;2022-12-18T00:16:25;-3.20;99.90
25300;DHT22;13241;51.208;4.432;2022-12-18T00:18:55;-3.10;99.90
25300;DHT22;13241;51.208;4.432;2022-12-18T00:21:22;-3.20;99.90
25300;DHT22;13241;51.208;4.432;2022-12-18T00:23:50;-3.20;99.90
25300;DHT22;13241;51.208;4.432;2022-12-18T00:26:22;-3.20;99.90
25300;DHT22;13241;51.208;4.432;2022-12-18T00:28:54;-3.20;99.90
25300;DHT22;13241;51.208;4.432;2022-12-18T00:31:24;-3.30;99.90
25300;DHT22;13241;51.208;4.432;2022-12-18T00:33:54;-3.30;99.90
25300;DHT22;13241;51.208;4.432;2022-12-18T00:36:25;-3.30;99.90
25300;DHT22;13241;51.208;4.432;2022-12-18T00:38:54;-3.30;99.90
25300;DHT22;13241;51.208;4.432;2022-12-18T00:41:21;-3.30;99.90
25300;DHT22;13241;51.208;4.432;2022-12-18T00:44:16;-3.40;99.90
25300;DHT22;13241;51.208;4.432;2022-12-18T00:46:45;-3.40;99.90
25300;DHT22;13241;51.208;4.432;2022-12-18T00:49:12;-3.40;99.90
25300;DHT22;13241;51.208;4.432;2022-12-18T00:51:40;-3.40;99.90
25300;DHT22;13241;51.208;4.432;2022-12-18T00:54:07;-3.40;99.90
25300;DHT22;13241;51.208;4.432;2022-12-18T00:56:38;-3.50;99.90
25300;DHT22;13241;51.208;4.432;2022-12-18T00:59:17;-3.50;99.90
25300;DHT22;13241;51.208;4.432;2022-12-18T01:01:45;-3.50;99.90
25300;DHT22;13241;51.208;4.432;2022-12-18T01:04:12;-3.50;99.90
25300;DHT22;13241;51.208;4.432;2022-12-18T01:06:39;-3.40;99.90
25300;DHT22;13241;51.208;4.432;2022-12-18T01:09:06;-3.50;99.90
25300;DHT22;13241;51.208;4.432;2022-12-18T01:11:35;-3.50;99.90
25300;DHT22;13241;51.208;4.432;2022-12-18T01:14:04;-3.50;99.90
25300;DHT22;13241;51.208;4.432;2022-12-18T01:16:30;-3.40;99.90
25300;DHT22;13241;51.208;4.432;2022-12-18T01:18:57;-3.50;99.90
25300;DHT22;13241;51.208;4.432;2022-12-18T01:21:26;-3.60;99.90
25300;DHT22;13241;51.208;4.432;2022-12-18T01:23:54;-3.60;99.90
25300;DHT22;13241;51.208;4.432;2022-12-18T01:26:24;-3.50;99.90
25300;DHT22;13241;51.208;4.432;2022-12-18T01:28:53;-3.60;99.90
25300;DHT22;13241;51.208;4.432;2022-12-18T01:31:26;-3.60;99.90
25300;DHT22;13241;51.208;4.432;2022-12-18T01:33:55;-3.60;99.90
25300;DHT22;13241;51.208;4.432;2022-12-18T01:36:27;-3.60;99.90
25300;DHT22;13241;51.208;4.432;2022-12-18T01:38:55;-3.60;99.90
25300;DHT22;13241;51.208;4.432;2022-12-18T01:41:25;-3.70;99.90
25300;DHT22;13241;51.208;4.432;2022-12-18T01:43:54;-3.70;99.90
25300;DHT22;13241;51.208;4.432;2022-12-18T01:46:26;-3.70;99.90
25300;DHT22;13241;51.208;4.432;2022-12-18T01:49:00;-3.80;99.90
25300;DHT22;13241;51.208;4.432;2022-12-18T01:51:29;-3.70;99.90
25300;DHT22;13241;51.208;4.432;2022-12-18T01:53:57;-3.70;99.90
25300;DHT22;13241;51.208;4.432;2022-12-18T01:56:26;-3.70;99.90
25300;DHT22;13241;51.208;4.432;2022-12-18T01:59:19;-3.70;99.90
25300;DHT22;13241;51.208;4.432;2022-12-18T02:01:46;-3.70;99.90
25300;DHT22;13241;51.208;4.432;2022-12-18T02:04:26;-3.60;99.90
25300;DHT22;13241;51.208;4.432;2022-12-18T02:07:03;-3.80;99.90
25300;DHT22;13241;51.208;4.432;2022-12-18T02:09:44;-3.80;99.90
25300;DHT22;13241;51.208;4.432;2022-12-18T02:12:23;-3.70;99.90
25300;DHT22;13241;51.208;4.432;2022-12-18T02:18:02;-3.70;99.90
25300;DHT22;13241;51.208;4.432;2022-12-18T02:20:48;-3.80;99.90
25300;DHT22;13241;51.208;4.432;2022-12-18T02:23:34;-3.80;99.90
25300;DHT22;13241;51.208;4.432;2022-12-18T02:26:33;-3.80;99.90
25300;DHT22;13241;51.208;4.432;2022-12-18T02:29:10;-3.80;99.90
25300;DHT22;13241;51.208;4.432;2022-12-18T02:31:50;-3.80;99.90
25300;DHT22;13241;51.208;4.432;2022-12-18T02:34:19;-3.80;99.90
25300;DHT22;13241;51.208;4.432;2022-12-18T02:36:49;-3.80;99.90
25300;DHT22;13241;51.208;4.432;2022-12-18T02:39:19;-3.80;99.90
25300;DHT22;13241;51.208;4.432;2022-12-18T02:41:58;-3.90;99.90
25300;DHT22;13241;51.208;4.432;2022-12-18T02:44:26;-3.90;99.90
25300;DHT22;13241;51.208;4.432;2022-12-18T02:46:54;-4.00;99.90
25300;DHT22;13241;51.208;4.432;2022-12-18T02:49:42;-4.00;99.90
25300;DHT22;13241;51.208;4.432;2022-12-18T02:52:26;-3.70;99.90
25300;DHT22;13241;51.208;4.432;2022-12-18T02:57:56;-3.90;99.90
25300;DHT22;13241;51.208;4.432;2022-12-18T03:01:02;-3.90;99.90
25300;DHT22;13241;51.208;4.432;2022-12-18T03:03:43;-3.90;99.90
25300;DHT22;13241;51.208;4.432;2022-12-18T03:06:21;-3.90;99.90
25300;DHT22;13241;51.208;4.432;2022-12-18T03:08:54;-3.90;99.90
25300;DHT22;13241;51.208;4.432;2022-12-18T03:11:28;-3.90;99.90
25300;DHT22;13241;51.208;4.432;2022-12-18T03:14:17;-3.80;99.90
25300;DHT22;13241;51.208;4.432;2022-12-18T03:16:50;-3.90;99.90
25300;DHT22;13241;51.208;4.432;2022-12-18T03:19:22;-3.90;99.90
25300;DHT22;13241;51.208;4.432;2022-12-18T03:21:54;-4.00;99.90
25300;DHT22;13241;51.208;4.432;2022-12-18T03:24:26;-4.00;99.90
25300;DHT22;13241;51.208;4.432;2022-12-18T03:27:00;-3.90;99.90
25300;DHT22;13241;51.208;4.432;2022-12-18T03:29:33;-4.00;99.90
25300;DHT22;13241;51.208;4.432;2022-12-18T03:32:05;-4.00;99.90
25300;DHT22;13241;51.208;4.432;2022-12-18T03:34:35;-4.00;99.90
25300;DHT22;13241;51.208;4.432;2022-12-18T03:37:06;-4.00;99.90
25300;DHT22;13241;51.208;4.432;2022-12-18T03:39:36;-3.90;99.90
25300;DHT22;13241;51.208;4.432;2022-12-18T03:44:55;-4.00;99.90
25300;DHT22;13241;51.208;4.432;2022-12-18T03:47:30;-4.00;99.90
25300;DHT22;13241;51.208;4.432;2022-12-18T03:50:18;-4.00;99.90
25300;DHT22;13241;51.208;4.432;2022-12-18T03:56:01;-4.00;99.90
25300;DHT22;13241;51.208;4.432;2022-12-18T03:58:37;-4.00;99.90
25300;DHT22;13241;51.208;4.432;2022-12-18T04:01:23;-4.10;99.90
25300;DHT22;13241;51.208;4.432;2022-12-18T04:03:52;-4.10;99.90
25300;DHT22;13241;51.208;4.432;2022-12-18T04:06:20;-4.10;99.90
25300;DHT22;13241;51.208;4.432;2022-12-18T04:08:48;-4.00;99.90
25300;DHT22;13241;51.208;4.432;2022-12-18T04:11:19;-4.00;99.90
25300;DHT22;13241;51.208;4.432;2022-12-18T04:13:47;-4.00;99.90
25300;DHT22;13241;51.208;4.432;2022-12-18T04:16:20;-4.00;99.90
25300;DHT22;13241;51.208;4.432;2022-12-18T04:18:52;-4.00;99.90
25300;DHT22;13241;51.208;4.432;2022-12-18T04:21:20;-4.00;99.90
25300;DHT22;13241;51.208;4.432;2022-12-18T04:23:48;-4.00;99.90
25300;DHT22;13241;51.208;4.432;2022-12-18T04:26:18;-4.00;99.90
25300;DHT22;13241;51.208;4.432;2022-12-18T04:29:10;-4.00;99.90
25300;DHT22;13241;51.208;4.432;2022-12-18T04:31:37;-4.00;99.90
25300;DHT22;13241;51.208;4.432;2022-12-18T04:34:04;-3.90;99.90
25300;DHT22;13241;51.208;4.432;2022-12-18T04:36:37;-4.00;99.90
25300;DHT22;13241;51.208;4.432;2022-12-18T04:39:04;-3.90;99.90
25300;DHT22;13241;51.208;4.432;2022-12-18T04:41:31;-3.90;99.90
25300;DHT22;13241;51.208;4.432;2022-12-18T04:43:58;-4.00;99.90
25300;DHT22;13241;51.208;4.432;2022-12-18T04:46:25;-3.90;99.90
25300;DHT22;13241;51.208;4.432;2022-12-18T04:48:51;-4.00;99.90
25300;DHT22;13241;51.208;4.432;2022-12-18T04:51:18;-4.00;99.90
25300;DHT22;13241;51.208;4.432;2022-12-18T04:53:52;-3.90;99.90
25300;DHT22;13241;51.208;4.432;2022-12-18T04:56:19;-3.90;99.90
25300;DHT22;13241;51.208;4.432;2022-12-18T04:58:45;-3.90;99.90
25300;DHT22;13241;51.208;4.432;2022-12-18T05:01:15;-3.90;99.90
25300;DHT22;13241;51.208;4.432;2022-12-18T05:03:42;-3.80;99.90
25300;DHT22;13241;51.208;4.432;2022-12-18T05:06:10;-3.80;99.90
25300;DHT22;13241;51.208;4.432;2022-12-18T05:08:37;-3.80;99.90
25300;DHT22;13241;51.208;4.432;2022-12-18T05:11:10;-3.50;99.90
25300;DHT22;13241;51.208;4.432;2022-12-18T05:13:37;-3.40;99.90
25300;DHT22;13241;51.208;4.432;2022-12-18T05:16:05;-3.50;99.90
25300;DHT22;13241;51.208;4.432;2022-12-18T05:18:32;-3.50;99.90
25300;DHT22;13241;51.208;4.432;2022-12-18T05:21:00;-3.60;99.90
25300;DHT22;13241;51.208;4.432;2022-12-18T05:23:27;-3.60;99.90
25300;DHT22;13241;51.208;4.432;2022-12-18T05:26:00;-3.70;99.90
25300;DHT22;13241;51.208;4.432;2022-12-18T05:28:29;-3.70;99.90
25300;DHT22;13241;51.208;4.432;2022-12-18T05:30:58;-3.80;99.90
25300;DHT22;13241;51.208;4.432;2022-12-18T05:33:30;-3.80;99.90
25300;DHT22;13241;51.208;4.432;2022-12-18T05:36:00;-3.90;99.90
25300;DHT22;13241;51.208;4.432;2022-12-18T05:38:28;-3.90;99.90
25300;DHT22;13241;51.208;4.432;2022-12-18T05:40:56;-3.90;99.90
25300;DHT22;13241;51.208;4.432;2022-12-18T05:43:24;-4.00;99.90
25300;DHT22;13241;51.208;4.432;2022-12-18T05:45:52;-4.10;99.90
25300;DHT22;13241;51.208;4.432;2022-12-18T05:48:20;-4.10;99.90
25300;DHT22;13241;51.208;4.432;2022-12-18T05:50:48;-4.10;99.90
25300;DHT22;13241;51.208;4.432;2022-12-18T05:53:17;-4.20;99.90
25300;DHT22;13241;51.208;4.432;2022-12-18T05:55:44;-4.20;99.90
25300;DHT22;13241;51.208;4.432;2022-12-18T05:58:13;-4.10;99.90
25300;DHT22;13241;51.208;4.432;2022-12-18T06:00:42;-4.20;99.90
25300;DHT22;13241;51.208;4.432;2022-12-18T06:03:11;-4.20;99.90
25300;DHT22;13241;51.208;4.432;2022-12-18T06:05:43;-4.30;99.90
25300;DHT22;13241;51.208;4.432;2022-12-18T06:08:12;-4.30;99.90
25300;DHT22;13241;51.208;4.432;2022-12-18T06:10:40;-4.20;99.90
25300;DHT22;13241;51.208;4.432;2022-12-18T06:13:07;-4.30;99.90
25300;DHT22;13241;51.208;4.432;2022-12-18T06:15:37;-4.30;99.90
25300;DHT22;13241;51.208;4.432;2022-12-18T06:18:05;-4.30;99.90
25300;DHT22;13241;51.208;4.432;2022-12-18T06:20:32;-4.20;99.90
25300;DHT22;13241;51.208;4.432;2022-12-18T06:23:00;-4.20;99.90
25300;DHT22;13241;51.208;4.432;2022-12-18T06:25:31;-4.10;99.90
25300;DHT22;13241;51.208;4.432;2022-12-18T06:28:01;-4.10;99.90
25300;DHT22;13241;51.208;4.432;2022-12-18T06:30:31;-4.10;99.90
25300;DHT22;13241;51.208;4.432;2022-12-18T06:32:58;-4.20;99.90
25300;DHT22;13241;51.208;4.432;2022-12-18T06:35:24;-4.20;99.90
25300;DHT22;13241;51.208;4.432;2022-12-18T06:37:51;-4.20;99.90
25300;DHT22;13241;51.208;4.432;2022-12-18T06:40:18;-4.20;99.90
25300;DHT22;13241;51.208;4.432;2022-12-18T06:42:45;-4.30;99.90
25300;DHT22;13241;51.208;4.432;2022-12-18T06:45:15;-4.30;99.90
25300;DHT22;13241;51.208;4.432;2022-12-18T06:47:42;-4.20;99.90
25300;DHT22;13241;51.208;4.432;2022-12-18T06:50:09;-4.10;99.90
25300;DHT22;13241;51.208;4.432;2022-12-18T06:52:36;-4.20;99.90
25300;DHT22;13241;51.208;4.432;2022-12-18T06:55:03;-4.20;99.90
25300;DHT22;13241;51.208;4.432;2022-12-18T06:57:30;-4.20;99.90
25300;DHT22;13241;51.208;4.432;2022-12-18T06:59:57;-4.20;99.90
25300;DHT22;13241;51.208;4.432;2022-12-18T07:02:24;-4.30;99.90
25300;DHT22;13241;51.208;4.432;2022-12-18T07:04:51;-4.20;99.90
25300;DHT22;13241;51.208;4.432;2022-12-18T07:07:18;-4.10;99.90
25300;DHT22;13241;51.208;4.432;2022-12-18T07:09:44;-4.10;99.90
25300;DHT22;13241;51.208;4.432;2022-12-18T07:12:11;-4.10;99.90
25300;DHT22;13241;51.208;4.432;2022-12-18T07:14:38;-4.10;99.90
25300;DHT22;13241;51.208;4.432;2022-12-18T07:17:05;-4.20;99.90
25300;DHT22;13241;51.208;4.432;2022-12-18T07:19:32;-4.10;99.90
25300;DHT22;13241;51.208;4.432;2022-12-18T07:21:59;-4.20;99.90
25300;DHT22;13241;51.208;4.432;2022-12-18T07:24:27;-4.20;99.90
25300;DHT22;13241;51.208;4.432;2022-12-18T07:26:54;-4.20;99.90
25300;DHT22;13241;51.208;4.432;2022-12-18T07:29:21;-4.10;99.90
25300;DHT22;13241;51.208;4.432;2022-12-18T07:31:47;-4.20;99.90
25300;DHT22;13241;51.208;4.432;2022-12-18T07:34:14;-4.20;99.90
25300;DHT22;13241;51.208;4.432;2022-12-18T07:36:41;-4.30;99.90
25300;DHT22;13241;51.208;4.432;2022-12-18T07:39:08;-4.30;99.90
25300;DHT22;13241;51.208;4.432;2022-12-18T07:41:35;-4.40;99.90
25300;DHT22;13241;51.208;4.432;2022-12-18T07:44:10;-4.40;99.90
25300;DHT22;13241;51.208;4.432;2022-12-18T07:46:37;-4.40;99.90
25300;DHT22;13241;51.208;4.432;2022-12-18T07:49:04;-4.40;99.90
25300;DHT22;13241;51.208;4.432;2022-12-18T07:51:31;-4.40;99.90
25300;DHT22;13241;51.208;4.432;2022-12-18T07:53:57;-4.40;99.90
25300;DHT22;13241;51.208;4.432;2022-12-18T07:56:24;-4.50;99.90
25300;DHT22;13241;51.208;4.432;2022-12-18T07:58:54;-4.40;99.90
25300;DHT22;13241;51.208;4.432;2022-12-18T08:01:21;-4.40;99.90
25300;DHT22;13241;51.208;4.432;2022-12-18T08:03:48;-4.50;99.90
25300;DHT22;13241;51.208;4.432;2022-12-18T08:06:18;-4.50;99.90
25300;DHT22;13241;51.208;4.432;2022-12-18T08:08:48;-4.50;99.90
25300;DHT22;13241;51.208;4.432;2022-12-18T08:11:15;-4.50;99.90
25300;DHT22;13241;51.208;4.432;2022-12-18T08:13:42;-4.50;99.90
25300;DHT22;13241;51.208;4.432;2022-12-18T08:16:09;-4.40;99.90
25300;DHT22;13241;51.208;4.432;2022-12-18T08:18:37;-4.40;99.90
25300;DHT22;13241;51.208;4.432;2022-12-18T08:21:16;-4.30;99.90
25300;DHT22;13241;51.208;4.432;2022-12-18T08:23:43;-4.20;99.90
25300;DHT22;13241;51.208;4.432;2022-12-18T08:26:12;-4.10;99.90
25300;DHT22;13241;51.208;4.432;2022-12-18T08:28:40;-4.10;99.90
25300;DHT22;13241;51.208;4.432;2022-12-18T08:31:07;-4.00;99.90
25300;DHT22;13241;51.208;4.432;2022-12-18T08:33:36;-4.00;99.90
25300;DHT22;13241;51.208;4.432;2022-12-18T08:36:05;-4.00;99.90
25300;DHT22;13241;51.208;4.432;2022-12-18T08:38:32;-3.90;99.90
25300;DHT22;13241;51.208;4.432;2022-12-18T08:43:27;-3.70;99.90
25300;DHT22;13241;51.208;4.432;2022-12-18T08:46:16;-3.60;99.90
25300;DHT22;13241;51.208;4.432;2022-12-18T08:48:43;-3.50;99.90
25300;DHT22;13241;51.208;4.432;2022-12-18T08:51:10;-3.40;99.90
25300;DHT22;13241;51.208;4.432;2022-12-18T08:53:37;-3.40;99.90
25300;DHT22;13241;51.208;4.432;2022-12-18T08:56:05;-3.30;99.90
25300;DHT22;13241;51.208;4.432;2022-12-18T08:58:32;-3.10;99.90
25300;DHT22;13241;51.208;4.432;2022-12-18T09:01:08;-3.00;99.90
25300;DHT22;13241;51.208;4.432;2022-12-18T09:03:38;-2.90;99.90
25300;DHT22;13241;51.208;4.432;2022-12-18T09:06:06;-2.80;99.90
25300;DHT22;13241;51.208;4.432;2022-12-18T09:08:33;-2.80;99.90
25300;DHT22;13241;51.208;4.432;2022-12-18T09:11:00;-2.70;99.90
25300;DHT22;13241;51.208;4.432;2022-12-18T09:13:26;-2.60;99.90
25300;DHT22;13241;51.208;4.432;2022-12-18T09:15:54;-2.50;99.90
25300;DHT22;13241;51.208;4.432;2022-12-18T09:18:23;-2.50;99.90
25300;DHT22;13241;51.208;4.432;2022-12-18T09:20:50;-2.50;99.90
25300;DHT22;13241;51.208;4.432;2022-12-18T09:23:19;-2.50;99.90
25300;DHT22;13241;51.208;4.432;2022-12-18T09:25:46;-2.50;99.90
25300;DHT22;13241;51.208;4.432;2022-12-18T09:28:15;-2.50;99.90
25300;DHT22;13241;51.208;4.432;2022-12-18T09:30:45;-2.50;99.90
25300;DHT22;13241;51.208;4.432;2022-12-18T09:33:12;-2.40;99.90
25300;DHT22;13241;51.208;4.432;2022-12-18T09:35:41;-2.40;99.90
25300;DHT22;13241;51.208;4.432;2022-12-18T09:38:12;-2.40;99.90
25300;DHT22;13241;51.208;4.432;2022-12-18T09:40:43;-2.40;99.90
25300;DHT22;13241;51.208;4.432;2022-12-18T09:43:24;-2.30;99.90
25300;DHT22;13241;51.208;4.432;2022-12-18T09:46:01;-2.10;99.90
25300;DHT22;13241;51.208;4.432;2022-12-18T09:48:34;-2.00;99.90
25300;DHT22;13241;51.208;4.432;2022-12-18T09:51:28;-1.90;99.90
25300;DHT22;13241;51.208;4.432;2022-12-18T09:54:11;-1.70;99.90
25300;DHT22;13241;51.208;4.432;2022-12-18T09:56:41;-1.60;99.90
25300;DHT22;13241;51.208;4.432;2022-12-18T09:59:21;-1.50;99.90
25300;DHT22;13241;51.208;4.432;2022-12-18T10:01:50;-1.50;99.90
25300;DHT22;13241;51.208;4.432;2022-12-18T10:04:18;-1.40;99.90
25300;DHT22;13241;51.208;4.432;2022-12-18T10:09:40;-1.20;99.90
25300;DHT22;13241;51.208;4.432;2022-12-18T10:12:23;-1.20;99.90
25300;DHT22;13241;51.208;4.432;2022-12-18T10:20:28;-1.20;99.90
25300;DHT22;13241;51.208;4.432;2022-12-18T10:26:09;-1.40;99.90
25300;DHT22;13241;51.208;4.432;2022-12-18T10:28:38;-1.40;99.90
25300;DHT22;13241;51.208;4.432;2022-12-18T10:31:20;-1.30;99.90
25300;DHT22;13241;51.208;4.432;2022-12-18T10:33:50;-1.30;99.90
25300;DHT22;13241;51.208;4.432;2022-12-18T10:36:17;-1.20;99.90
25300;DHT22;13241;51.208;4.432;2022-12-18T10:38:43;-1.20;99.90
25300;DHT22;13241;51.208;4.432;2022-12-18T10:44:12;-1.10;99.90
25300;DHT22;13241;51.208;4.432;2022-12-18T10:46:39;-1.10;99.90
25300;DHT22;13241;51.208;4.432;2022-12-18T10:49:18;-1.00;99.90
25300;DHT22;13241;51.208;4.432;2022-12-18T10:51:46;-0.90;99.90
25300;DHT22;13241;51.208;4.432;2022-12-18T10:54:19;-0.90;99.90
25300;DHT22;13241;51.208;4.432;2022-12-18T10:56:47;-0.90;99.90
25300;DHT22;13241;51.208;4.432;2022-12-18T10:59:16;-0.80;99.90
25300;DHT22;13241;51.208;4.432;2022-12-18T11:01:50;-0.70;99.90
25300;DHT22;13241;51.208;4.432;2022-12-18T11:04:26;-0.60;99.90
25300;DHT22;13241;51.208;4.432;2022-12-18T11:07:04;-0.60;99.90
25300;DHT22;13241;51.208;4.432;2022-12-18T11:09:33;-0.40;99.90
25300;DHT22;13241;51.208;4.432;2022-12-18T11:12:26;-0.40;99.90
25300;DHT22;13241;51.208;4.432;2022-12-18T11:14:52;-0.30;99.90
25300;DHT22;13241;51.208;4.432;2022-12-18T11:17:25;0.00;99.90
25300;DHT22;13241;51.208;4.432;2022-12-18T11:19:56;-0.20;99.90
25300;DHT22;13241;51.208;4.432;2022-12-18T11:22:28;-0.10;99.90
25300;DHT22;13241;51.208;4.432;2022-12-18T11:25:05;0.00;99.90
25300;DHT22;13241;51.208;4.432;2022-12-18T11:28:05;0.00;99.90
25300;DHT22;13241;51.208;4.432;2022-12-18T11:30:35;0.00;99.90
25300;DHT22;13241;51.208;4.432;2022-12-18T11:33:12;0.00;99.90
25300;DHT22;13241;51.208;4.432;2022-12-18T11:35:58;0.00;99.90
25300;DHT22;13241;51.208;4.432;2022-12-18T11:38:40;0.00;99.90
25300;DHT22;13241;51.208;4.432;2022-12-18T11:41:23;0.10;99.90
25300;DHT22;13241;51.208;4.432;2022-12-18T11:44:22;0.10;99.90
25300;DHT22;13241;51.208;4.432;2022-12-18T11:47:03;0.20;99.90
25300;DHT22;13241;51.208;4.432;2022-12-18T11:49:34;0.20;99.90
25300;DHT22;13241;51.208;4.432;2022-12-18T11:52:15;0.20;99.90
25300;DHT22;13241;51.208;4.432;2022-12-18T11:54:43;0.20;99.90
25300;DHT22;13241;51.208;4.432;2022-12-18T12:07:58;0.20;99.90
25300;DHT22;13241;51.208;4.432;2022-12-18T12:10:37;0.20;99.90
25300;DHT22;13241;51.208;4.432;2022-12-18T12:21:42;0.50;99.90
25300;DHT22;13241;51.208;4.432;2022-12-18T12:27:24;0.40;99.90
25300;DHT22;13241;51.208;4.432;2022-12-18T12:30:18;0.40;99.90
25300;DHT22;13241;51.208;4.432;2022-12-18T12:36:28;0.40;99.90
25300;DHT22;13241;51.208;4.432;2022-12-18T12:39:01;0.50;99.90
25300;DHT22;13241;51.208;4.432;2022-12-18T12:41:32;0.60;99.90
25300;DHT22;13241;51.208;4.432;2022-12-18T12:44:28;0.70;99.90
25300;DHT22;13241;51.208;4.432;2022-12-18T12:47:00;0.70;99.90
25300;DHT22;13241;51.208;4.432;2022-12-18T12:49:31;0.70;99.90
25300;DHT22;13241;51.208;4.432;2022-12-18T12:54:52;0.70;99.90
25300;DHT22;13241;51.208;4.432;2022-12-18T12:57:29;0.70;99.90
25300;DHT22;13241;51.208;4.432;2022-12-18T13:00:13;0.60;99.90
25300;DHT22;13241;51.208;4.432;2022-12-18T13:02:59;0.60;99.90
25300;DHT22;13241;51.208;4.432;2022-12-18T13:13:14;0.70;99.90
25300;DHT22;13241;51.208;4.432;2022-12-18T13:16:05;0.80;99.90
25300;DHT22;13241;51.208;4.432;2022-12-18T13:18:33;0.90;99.90
25300;DHT22;13241;51.208;4.432;2022-12-18T13:23:36;1.00;99.90
25300;DHT22;13241;51.208;4.432;2022-12-18T13:34:22;0.90;99.90
25300;DHT22;13241;51.208;4.432;2022-12-18T13:36:55;1.00;99.90
25300;DHT22;13241;51.208;4.432;2022-12-18T13:39:31;1.00;99.90
25300;DHT22;13241;51.208;4.432;2022-12-18T13:44:40;1.00;99.90
25300;DHT22;13241;51.208;4.432;2022-12-18T13:47:33;1.00;99.90
25300;DHT22;13241;51.208;4.432;2022-12-18T13:50:10;1.00;99.90
25300;DHT22;13241;51.208;4.432;2022-12-18T13:52:39;1.00;99.90
25300;DHT22;13241;51.208;4.432;2022-12-18T13:55:14;1.00;99.90
25300;DHT22;13241;51.208;4.432;2022-12-18T13:57:42;1.00;99.90
25300;DHT22;13241;51.208;4.432;2022-12-18T14:00:29;1.00;99.90
25300;DHT22;13241;51.208;4.432;2022-12-18T14:02:57;0.90;99.90
25300;DHT22;13241;51.208;4.432;2022-12-18T14:05:35;1.00;99.90
25300;DHT22;13241;51.208;4.432;2022-12-18T14:08:09;1.00;99.90
25300;DHT22;13241;51.208;4.432;2022-12-18T14:10:41;1.00;99.90
25300;DHT22;13241;51.208;4.432;2022-12-18T14:15:53;1.10;99.90
25300;DHT22;13241;51.208;4.432;2022-12-18T14:18:50;1.10;99.90
25300;DHT22;13241;51.208;4.432;2022-12-18T14:21:27;1.10;99.90
25300;DHT22;13241;51.208;4.432;2022-12-18T14:24:20;1.10;99.90
25300;DHT22;13241;51.208;4.432;2022-12-18T14:26:48;1.10;99.90
25300;DHT22;13241;51.208;4.432;2022-12-18T14:29:26;1.10;99.90
25300;DHT22;13241;51.208;4.432;2022-12-18T14:32:15;1.10;99.90
25300;DHT22;13241;51.208;4.432;2022-12-18T14:34:50;1.00;99.90
25300;DHT22;13241;51.208;4.432;2022-12-18T14:37:23;1.00;99.90
25300;DHT22;13241;51.208;4.432;2022-12-18T14:40:00;1.00;99.90
25300;DHT22;13241;51.208;4.432;2022-12-18T14:42:36;1.00;99.90
25300;DHT22;13241;51.208;4.432;2022-12-18T14:45:32;1.00;99.90
25300;DHT22;13241;51.208;4.432;2022-12-18T14:48:11;1.00;99.90
25300;DHT22;13241;51.208;4.432;2022-12-18T14:50:43;1.00;99.90
25300;DHT22;13241;51.208;4.432;2022-12-18T14:53:41;0.90;99.90
25300;DHT22;13241;51.208;4.432;2022-12-18T14:56:26;0.90;99.90
25300;DHT22;13241;51.208;4.432;2022-12-18T14:58:59;0.90;99.90
25300;DHT22;13241;51.208;4.432;2022-12-18T15:01:36;1.10;99.90
25300;DHT22;13241;51.208;4.432;2022-12-18T15:04:05;0.90;99.90
25300;DHT22;13241;51.208;4.432;2022-12-18T15:07:15;0.90;99.90
25300;DHT22;13241;51.208;4.432;2022-12-18T15:10:07;0.90;99.90
25300;DHT22;13241;51.208;4.432;2022-12-18T15:12:46;0.80;99.90
25300;DHT22;13241;51.208;4.432;2022-12-18T15:18:00;1.00;99.90
25300;DHT22;13241;51.208;4.432;2022-12-18T15:20:29;0.90;99.90
25300;DHT22;13241;51.208;4.432;2022-12-18T15:22:58;0.90;99.90
25300;DHT22;13241;51.208;4.432;2022-12-18T15:25:43;0.90;99.90
25300;DHT22;13241;51.208;4.432;2022-12-18T15:28:21;0.90;99.90
25300;DHT22;13241;51.208;4.432;2022-12-18T15:31:03;1.00;99.90
25300;DHT22;13241;51.208;4.432;2022-12-18T15:33:42;1.00;99.90
25300;DHT22;13241;51.208;4.432;2022-12-18T15:36:13;1.00;99.90
25300;DHT22;13241;51.208;4.432;2022-12-18T15:38:40;1.00;99.90
25300;DHT22;13241;51.208;4.432;2022-12-18T15:41:20;0.90;99.90
25300;DHT22;13241;51.208;4.432;2022-12-18T15:43:51;1.00;99.90
25300;DHT22;13241;51.208;4.432;2022-12-18T15:46:21;1.00;99.90
25300;DHT22;13241;51.208;4.432;2022-12-18T15:48:55;1.10;99.90
25300;DHT22;13241;51.208;4.432;2022-12-18T15:51:35;1.10;99.90
25300;DHT22;13241;51.208;4.432;2022-12-18T15:54:05;1.20;99.90
25300;DHT22;13241;51.208;4.432;2022-12-18T15:56:33;1.20;99.90
25300;DHT22;13241;51.208;4.432;2022-12-18T15:59:20;1.20;99.90
25300;DHT22;13241;51.208;4.432;2022-12-18T16:01:48;1.20;99.90
25300;DHT22;13241;51.208;4.432;2022-12-18T16:04:17;1.20;99.90
25300;DHT22;13241;51.208;4.432;2022-12-18T16:06:44;1.20;99.90
25300;DHT22;13241;51.208;4.432;2022-12-18T16:09:30;1.20;99.90
25300;DHT22;13241;51.208;4.432;2022-12-18T16:11:58;1.30;99.90
25300;DHT22;13241;51.208;4.432;2022-12-18T16:14:27;1.30;99.90
25300;DHT22;13241;51.208;4.432;2022-12-18T16:16:59;1.40;99.90
25300;DHT22;13241;51.208;4.432;2022-12-18T16:19:27;1.40;99.90
25300;DHT22;13241;51.208;4.432;2022-12-18T16:21:55;1.50;99.90
25300;DHT22;13241;51.208;4.432;2022-12-18T16:24:27;1.50;99.90
25300;DHT22;13241;51.208;4.432;2022-12-18T16:26:56;1.50;99.90
25300;DHT22;13241;51.208;4.432;2022-12-18T16:29:25;1.50;99.90
25300;DHT22;13241;51.208;4.432;2022-12-18T16:34:23;1.50;99.90
25300;DHT22;13241;51.208;4.432;2022-12-18T16:37:05;1.50;99.90
25300;DHT22;13241;51.208;4.432;2022-12-18T16:39:33;1.50;99.90
25300;DHT22;13241;51.208;4.432;2022-12-18T16:42:08;1.50;99.90
25300;DHT22;13241;51.208;4.432;2022-12-18T16:44:35;1.50;99.90
25300;DHT22;13241;51.208;4.432;2022-12-18T16:47:03;1.50;99.90
25300;DHT22;13241;51.208;4.432;2022-12-18T16:49:30;1.50;99.90
25300;DHT22;13241;51.208;4.432;2022-12-18T16:51:57;1.50;99.90
25300;DHT22;13241;51.208;4.432;2022-12-18T16:54:24;1.50;99.90
25300;DHT22;13241;51.208;4.432;2022-12-18T16:56:51;1.50;99.90
25300;DHT22;13241;51.208;4.432;2022-12-18T16:59:18;1.60;99.90
25300;DHT22;13241;51.208;4.432;2022-12-18T17:01:45;1.60;99.90
25300;DHT22;13241;51.208;4.432;2022-12-18T17:04:13;1.60;99.90
25300;DHT22;13241;51.208;4.432;2022-12-18T17:06:42;1.70;99.90
25300;DHT22;13241;51.208;4.432;2022-12-18T17:09:13;1.70;99.90
25300;DHT22;13241;51.208;4.432;2022-12-18T17:11:42;1.80;99.90
25300;DHT22;13241;51.208;4.432;2022-12-18T17:14:13;1.90;99.90
25300;DHT22;13241;51.208;4.432;2022-12-18T17:16:41;1.80;99.90
25300;DHT22;13241;51.208;4.432;2022-12-18T17:19:08;1.80;99.90
25300;DHT22;13241;51.208;4.432;2022-12-18T17:21:43;1.80;99.90
25300;DHT22;13241;51.208;4.432;2022-12-18T17:24:10;1.80;99.90
25300;DHT22;13241;51.208;4.432;2022-12-18T17:26:37;1.90;99.90
25300;DHT22;13241;51.208;4.432;2022-12-18T17:29:04;1.90;99.90
25300;DHT22;13241;51.208;4.432;2022-12-18T17:31:31;1.90;99.90
25300;DHT22;13241;51.208;4.432;2022-12-18T17:34:01;1.90;99.90